171420Z 19006KT 9999 OVC006 09/08 Q1010=

171430Z 1715/1724 23004KT 8000 BR OVC003 TEMPO 1715/1724 2500 OVC006=

Aktuell METAR/TAF ESNU/UME

Källa: Luftfartsverket (aro.lfv.se)